• Join FlightAware (Why Join?)
  • Login
  • US Flag 
11:46AM EST


 

Airport Tracker/Info


-or-


 

Live Flight TrackerFlight Track Log ✈ N785JP ✈ 26-Jun-2013 ✈ KSUS - KSTE

Flight Track Log - Related Links

Times and Time Zones

All times are in EDT time to prevent confusion due to time zone crossing. See the N785JP flight status page for this flight to view local times or setup timezone preferences in your user account.

Time Position Orientation Groundspeed Altitude Reporting Facility
EDT Latitude Longitude Course Direction KTS MPH feet Rate Location/Type
04:30PM 38.6667 -90.6667 303° West 132 152 1,100  Level Gateway (St. Louis) TRACON
04:31PM 38.6833 -90.7000 303° West 158 182 2,200 1,200 Climbing Gateway (St. Louis) TRACON
04:32PM 38.7333 -90.7167 345° North 160 184 3,700 1,260 Climbing Gateway (St. Louis) TRACON
04:33PM 38.7797 -90.7047 11° North 160 184 5,100 1,140 Climbing Kansas City Center
04:34PM 38.8250 -90.7008 North 162 186 6,300 1,200 Climbing Kansas City Center
04:35PM 38.8764 -90.7003 360° North 155 178 7,600 1,260 Climbing Kansas City Center
04:36PM 38.9211 -90.6919 North 160 184 8,900 1,200 Climbing Kansas City Center
04:37PM 38.9667 -90.6883 North 163 188 10,100 1,020 Climbing Kansas City Center
04:38PM 39.0128 -90.6828 North 165 190 11,100 960 Climbing Kansas City Center
04:39PM 39.0608 -90.6767 North 171 197 12,200 1,020 Climbing Kansas City Center
04:40PM 39.1089 -90.6719 North 172 198 13,300 1,200 Climbing Kansas City Center
04:41PM 39.1644 -90.6653 North 168 193 14,700 1,200 Climbing Kansas City Center
04:42PM 39.2108 -90.6572 North 168 193 15,800 1,080 Climbing Kansas City Center
04:44PM 39.2550 -90.6525 North 163 188 17,000 960 Climbing Kansas City Center
04:45PM 39.2969 -90.6486 North 154 177 17,900 720 Climbing Kansas City Center
04:46PM 39.3403 -90.6425 North 155 178 18,600 480 Climbing Kansas City Center
04:47PM 39.3864 -90.6367 North 163 188 19,000 180 Climbing Kansas City Center
04:48PM 39.4375 -90.6319 North 179 206 19,000  Level Kansas City Center
04:49PM 39.5019 -90.6231 North 192 221 19,000  Level Kansas City Center
04:50PM 39.5578 -90.6169 North 198 228 19,000  Level Kansas City Center
04:51PM 39.6144 -90.6103 North 203 234 19,000  Level Kansas City Center
04:52PM 39.6697 -90.6019 North 202 232 19,000  Level Kansas City Center
04:53PM 39.7256 -90.5950 North 201 231 19,000  Level Kansas City Center
04:54PM 39.7861 -90.5892 North 202 232 19,000  Level Kansas City Center
04:55PM 39.8422 -90.5869 North 202 232 19,000  Level Kansas City Center
04:56PM 39.8986 -90.5833 North 202 232 19,000  Level Kansas City Center
04:57PM 39.9653 -90.5792 North 200 230 19,000  Level Kansas City Center
04:58PM 40.0225 -90.5767 North 204 235 19,000  Level Kansas City Center
04:59PM 40.0797 -90.5733 North 205 236 19,000  Level Kansas City Center
05:00PM 40.1381 -90.5700 North 207 238 19,000  Level Kansas City Center
05:01PM 40.1958 -90.5672 North 208 239 19,000  Level Kansas City Center
05:02PM 40.2542 -90.5639 North 208 239 19,000  Level Kansas City Center
05:03PM 40.3228 -90.5594 North 206 237 19,000  Level Kansas City Center
05:04PM 40.3803 -90.5569 North 206 237 19,000  Level Kansas City Center
05:05PM 40.4150 -90.5553 North 208 239 19,000  Level Chicago Center
05:06PM 40.4717 -90.5528 North 205 236 19,000  Level Chicago Center
05:08PM 40.5878 -90.5461 North 208 239 19,000  Level Chicago Center
05:09PM 40.6458 -90.5436 North 208 239 19,000  Level Chicago Center
05:10PM 40.7042 -90.5400 North 209 241 19,000  Level Chicago Center
05:11PM 40.7636 -90.5364 North 211 243 19,000  Level Chicago Center
05:12PM 40.8322 -90.5328 North 207 238 19,000  Level Chicago Center
05:13PM 40.8906 -90.5294 North 208 239 19,000  Level Chicago Center
05:14PM 40.9486 -90.5261 North 209 241 19,000  Level Chicago Center
05:15PM 41.0069 -90.5231 North 207 238 19,000  Level Chicago Center
05:16PM 41.0656 -90.5194 North 209 241 19,000  Level Chicago Center
05:17PM 41.1239 -90.5169 North 209 241 19,000  Level Chicago Center
05:18PM 41.1944 -90.5128 North 211 243 19,000  Level Chicago Center
05:19PM 41.2531 -90.5094 North 211 243 19,000  Level Chicago Center
05:20PM 41.3103 -90.5072 North 208 239 19,000  Level Chicago Center
05:21PM 41.3700 -90.5025 North 211 243 19,000  Level Chicago Center
05:22PM 41.4292 -90.4989 North 212 244 19,000  Level Chicago Center
05:23PM 41.4864 -90.4961 North 208 239 19,000  Level Chicago Center
05:24PM 41.5561 -90.4922 North 208 239 19,000  Level Chicago Center
05:25PM 41.6147 -90.4894 North 211 243 19,000  Level Chicago Center
05:27PM 41.6731 -90.4867 North 212 244 19,000  Level Chicago Center
05:28PM 41.7317 -90.4800 North 212 244 19,000  Level Chicago Center
05:29PM 41.7897 -90.4667 10° North 212 244 19,000  Level Chicago Center
05:30PM 41.8472 -90.4528 10° North 211 243 19,000  Level Chicago Center
05:31PM 41.9164 -90.4383 North 210 242 19,000  Level Chicago Center
05:32PM 41.9753 -90.4256 North 214 246 19,000  Level Chicago Center
05:33PM 42.0353 -90.4117 10° North 219 252 19,000  Level Chicago Center
05:34PM 42.0922 -90.4014 North 211 243 19,000  Level Chicago Center
05:35PM 42.1514 -90.3886 North 215 247 19,000  Level Chicago Center
05:36PM 42.2219 -90.3728 North 215 247 19,000  Level Chicago Center
05:37PM 42.2806 -90.3606 North 216 249 19,000  Level Chicago Center
05:38PM 42.3389 -90.3472 10° North 214 246 19,000  Level Chicago Center
05:39PM 42.3956 -90.3344 North 210 242 19,000  Level Chicago Center
05:40PM 42.4650 -90.3181 10° North 212 244 19,000  Level Chicago Center
05:41PM 42.5233 -90.3061 North 214 246 19,000  Level Chicago Center
05:42PM 42.5817 -90.2922 10° North 215 247 19,000  Level Chicago Center
05:43PM 42.6394 -90.2800 North 214 246 19,000  Level Chicago Center
05:44PM 42.6978 -90.2667 10° North 215 247 19,000  Level Chicago Center
05:45PM 42.7683 -90.2519 North 216 249 19,000  Level Chicago Center
05:46PM 42.8261 -90.2392 North 214 246 19,000  Level Chicago Center
05:47PM 42.8833 -90.2250 10° North 211 243 19,000  Level Chicago Center
05:48PM 42.9422 -90.2131 North 214 246 19,000  Level Chicago Center
05:49PM 43.0114 -90.1967 10° North 213 245 19,000  Level Chicago Center
05:50PM 43.0692 -90.1842 North 213 245 19,000  Level Chicago Center
05:51PM 43.1281 -90.1700 10° North 216 249 19,000  Level Chicago Center
05:52PM 43.1944 -90.1556 North 214 246 19,000  Level Chicago Center
05:53PM 43.2531 -90.1428 North 212 244 19,000  Level Chicago Center
05:54PM 43.3108 -90.1261 12° North 212 244 19,000  Level Chicago Center
05:55PM 43.3686 -90.0989 19° North 216 249 19,000 -60 Level Chicago Center
05:57PM 43.4261 -90.0711 19° North 216 249 18,900 -600 Descending Chicago Center
05:58PM 43.4894 -90.0417 19° North 237 273 17,800 -1,020 Descending Chicago Center
05:59PM 43.5675 -90.0044 19° North 252 290 16,900 -780 Descending Chicago Center
06:00PM 43.6333 -89.9744 18° North 250 288 16,200 -720 Descending Chicago Center
06:01PM 43.6992 -89.9428 19° North 250 288 15,500 -720 Descending Chicago Center
06:02PM 43.7653 -89.9106 19° North 250 288 14,800 -720 Descending Chicago Center
06:03PM 43.8322 -89.8789 19° North 253 291 14,100 -780 Descending Chicago Center
06:04PM 43.9103 -89.8406 19° North 254 292 13,300 -840 Descending Chicago Center
06:05PM 43.9775 -89.8089 19° North 253 291 12,400 -900 Descending Chicago Center
06:06PM 44.0456 -89.7761 19° North 256 295 11,500 -960 Descending Chicago Center
06:07PM 44.1142 -89.7414 20° North 260 299 10,500 -1,020 Descending Chicago Center
06:07PM 44.1583 -89.7197 19° North 256 295 9,900 -1,020 Descending Minneapolis Center
06:09PM 44.2258 -89.6886 18° North 248 285 8,900 -1,140 Descending Minneapolis Center
06:10PM 44.2939 -89.6542 20° North 248 285 7,600 -1,500 Descending Minneapolis Center
06:11PM 44.3622 -89.6214 19° North 248 285 5,900 -1,440 Descending Minneapolis Center
06:13PM 44.4961 -89.5311 26° Northeast 237 273 2,600 -1,320 Descending Chicago Center
06:15PM 44.5333 -89.5167 35° Northeast  Level FlightAware Approximate
06:22PM 44.5451 -89.5303 35° Northeast  Level Estimated